EDHL/LBC METAR and TAF weather

Enter ICAO airport designator
Station Type Date Time Source
EDHL METAR 2018/12/10 17:50 UTC NOAA

EDHL 101750Z 25007KT 230V300 9999 SCT024 05/01 Q1009


Station Type Date Time Source
EDHL Decoded METAR 2018/12/10 17:50 UTC NOAA

Luebeck-Blankensee, Germany (EDHL) 53-49N 010-42E 15M
Dec 10, 2018 - 12:50 PM EST / 2018.12.10 1750 UTC
Wind: from the WSW (250 degrees) at 8 MPH (7 KT) (direction variable):0
Visibility: greater than 7 mile(s):0
Sky conditions: partly cloudy
Temperature: 41 F (5 C)
Dew Point: 33 F (1 C)
Relative Humidity: 75%
Pressure (altimeter): 29.80 in. Hg (1009 hPa)
ob: EDHL 101750Z 25007KT 230V300 9999 SCT024 05/01 Q1009
cycle: 18

Station Type Date Time Source
EDHL TAF 2010/02/22 14:20 UTC NOAA

METAR EDHL 221420Z 15004KT 110V180 9999 FEW039 SCT120 05/02 Q0990
RMK X


Example: see airport list